Nyk Deneb — 3EOF8 — position and weather

sailwx.info

Track history (hours):
 
Tides and Currents Weather Stations Pressure Air Temp Water Temp Dewpoint Dewpoint Depression Visibility Wind Speed Wind Dir Waves Ship Positions

Nyk Deneb

Last reported at 2015-Feb-24 12:00 UTC. Time now 2015-Mar-01 23:30 UTC.
Position N 46°42' E 161°12'.

Length 294 m; draft 12 m.

Type: Ship (hazmat cat B). MMSI: 355717000.

Wind from 230 at 27 knots

Waves 4.5 meters (15 feet), 8 second period

Barometer 997.5 mb
Air temperature 6.0 ° C
Visibility: greater than 5.4 NM
Dewpoint -1.2 ° C
Water temperature 3.0 ° C

Date/timePositionNaut miles runAvg speedWind from/ knotsBaromVisibWave heightAir tempDewpointWater temp
2015-Feb-24 12:00N 46°42' E 161°12'42311.7 230 / 27997.5 5.4 4.5 6.0-1.2 3.0
2015-Feb-23 00:00N 48°06' E 171°24'   270 / 131008.0 5.4 2.5 4.0-3.9 4.0
2015-Feb-16 04:33N 39°09' W 135°28'33518.6
2015-Feb-15 10:33N 35°53' W 129°45'1918.8
2015-Feb-15 09:33N 35°42' W 129°27'2418.7
2015-Feb-15 08:16N 35°27' W 129°03'1318.5
2015-Feb-15 07:33N 35°19' W 128°51'1818.3
2015-Feb-15 06:33N 35°08' W 128°33'1818.0
2015-Feb-15 05:32N 34°56' W 128°15'1818.0
2015-Feb-15 04:32N 34°45' W 127°58'1717.6
2015-Feb-15 03:33N 34°34' W 127°42'1817.8
2015-Feb-15 02:33N 34°23' W 127°25'1917.6
2015-Feb-15 01:27N 34°11' W 127°07'1617.9
2015-Feb-15 00:33N 34°01' W 126°52'1817.9
2015-Feb-14 23:33N 33°49' W 126°35'2018.1
2015-Feb-14 22:28N 33°37' W 126°17'1718.3
2015-Feb-14 21:33N 33°26' W 126°01'1818.1
2015-Feb-14 20:33N 33°15' W 125°45'1818.1
2015-Feb-14 19:33N 33°03' W 125°28'2020.0
2015-Feb-14 18:33N 32°50' W 125°10'1918.6
2015-Feb-14 17:32N 32°38' W 124°52'1313.8
2015-Feb-14 16:33N 32°29' W 124°40'1312.9
2015-Feb-14 15:33N 32°21' W 124°29'1313.1
2015-Feb-14 14:33N 32°12' W 124°17'1313.2
2015-Feb-14 13:33N 32°04' W 124°05'1313.3
2015-Feb-14 12:33N 31°55' W 123°53'  
Track history (hours):
 
Tides and Currents Weather Stations Pressure Air Temp Water Temp Dewpoint Dewpoint Depression Visibility Wind Speed Wind Dir Waves Ship Positions

Nyk Deneb

Last reported at 2015-Feb-24 12:00 UTC. Time now 2015-Mar-01 23:30 UTC.
Position N 46°42' E 161°12'.

Length 294 m; draft 12 m.

Type: Ship (hazmat cat B). MMSI: 355717000.

Wind from 230 at 27 knots

Waves 4.5 meters (15 feet), 8 second period

Barometer 997.5 mb
Air temperature 6.0 ° C
Visibility: greater than 5.4 NM
Dewpoint -1.2 ° C
Water temperature 3.0 ° C

Date/timePositionNaut miles runAvg speedWind from/ knotsBaromVisibWave heightAir tempDewpointWater temp
2015-Feb-24 12:00N 46°42' E 161°12'42311.7 230 / 27997.5 5.4 4.5 6.0-1.2 3.0
2015-Feb-23 00:00N 48°06' E 171°24'   270 / 131008.0 5.4 2.5 4.0-3.9 4.0
2015-Feb-16 04:33N 39°09' W 135°28'33518.6
2015-Feb-15 10:33N 35°53' W 129°45'1918.8
2015-Feb-15 09:33N 35°42' W 129°27'2418.7
2015-Feb-15 08:16N 35°27' W 129°03'1318.5
2015-Feb-15 07:33N 35°19' W 128°51'1818.3
2015-Feb-15 06:33N 35°08' W 128°33'1818.0
2015-Feb-15 05:32N 34°56' W 128°15'1818.0
2015-Feb-15 04:32N 34°45' W 127°58'1717.6
2015-Feb-15 03:33N 34°34' W 127°42'1817.8
2015-Feb-15 02:33N 34°23' W 127°25'1917.6
2015-Feb-15 01:27N 34°11' W 127°07'1617.9
2015-Feb-15 00:33N 34°01' W 126°52'1817.9
2015-Feb-14 23:33N 33°49' W 126°35'2018.1
2015-Feb-14 22:28N 33°37' W 126°17'1718.3
2015-Feb-14 21:33N 33°26' W 126°01'1818.1
2015-Feb-14 20:33N 33°15' W 125°45'1818.1
2015-Feb-14 19:33N 33°03' W 125°28'2020.0
2015-Feb-14 18:33N 32°50' W 125°10'1918.6
2015-Feb-14 17:32N 32°38' W 124°52'1313.8
2015-Feb-14 16:33N 32°29' W 124°40'1312.9
2015-Feb-14 15:33N 32°21' W 124°29'1313.1
2015-Feb-14 14:33N 32°12' W 124°17'1313.2
2015-Feb-14 13:33N 32°04' W 124°05'1313.3
2015-Feb-14 12:33N 31°55' W 123°53'  

Dump ship's entire track history